Enid, OK (73701)

4:32 AM CDT on September 16, 2014 (GMT -0500)
pr14 | Change Station
CLOSE
Current Station
Personal Weather Station
Location: Enid, OK
Elevation: 1316 ft
Nearby Weather Stations
4.0 Earthquake: Guthrie, Oklahoma (13 hours ago)  

Elev 1316 ft 36.41 °N, 97.93 °W | Updated 17 seconds ago

Overcast
Overcast
65.4 °F
Feels Like 65.4 °F
N
4.0
Wind Variable Wind from NE
Gusts 4.0 mph

Today
High -- | Low -- °F
--% Chance of Precip.
Yesterday
High -- | Low -- °F
Precip. -- in
7:14 AM 7:37 PM
Waning Gibbous, 47% visible
Pressure 30.16 in
Visibility 10.0 miles
Clouds Mostly Cloudy 1400 ft
Overcast 1900 ft
Dew Point 61 °F
Humidity 87%
Rainfall 0.00 in
Snow Depth Not available.
UV 0.0 out of 12
Pollen 7.80 out of 12
Air Quality Not available.
Flu Activity Not available.
METAR KWDG 160915Z AUTO 02007KT 10SM BKN014 OVC019 18/17 A3016 RMK AO2

More Conditions Fewer Conditions

Pressure 30.16 in
Visibility 10.0 miles
Clouds Mostly Cloudy 1400 ft
Overcast 1900 ft
Dew Point 61 °F
Humidity 87%
Rainfall 0.00 in
Snow Depth Not available.
UV 0.0 out of 12
Pollen 7.80 out of 12
Air Quality Not available.
Flu Activity Not available.
METAR KWDG 160915Z AUTO 02007KT 10SM BKN014 OVC019 18/17 A3016 RMK AO2

More Conditions Fewer Conditions

10-Day Weather Forecast

Almanac

Astronomy

Sep. 16, 2014 Rise Set
Actual Time 7:14 AM CDT 7:37 PM CDT
Civil Twilight 6:48 AM CDT 8:03 PM CDT
Nautical Twilight 6:18 AM CDT 8:33 PM CDT
Astronomical Twilight 5:47 AM CDT 9:04 PM CDT
Moon 12:32 AM CDT 2:54 PM CDT
Length of Visible Light 13h 14m
Length of Day
12h 22m
Tomorrow will be 2m 17s shorter.
Waning Gibbous, 47% of the Moon is Illuminated
Today
Waning Gibbous
Sep 24
New
Oct 1
First Quarter
Oct 8
Full
Oct 15
Last Quarter

Today's Extremes

State Highs State Lows

Community

WunderPhotos

Upload Photos

1,753,714 photos uploaded!

WunderBlogs® & News

Nearby

Snow Depth

Station Depth Elevation
No new snow has been reported.

Earthquake Activity

City Distance Mag. Time & Date
Guthrie, Oklahoma 47 miles 2.7 4:00 PM CDT
2014-09-15
Guthrie, Oklahoma 47 miles 3.2 3:14 PM CDT
2014-09-15
Guthrie, Oklahoma 47 miles 4.0 3:08 PM CDT
2014-09-15
Enid, Oklahoma 16 miles 3.1 8:27 AM CDT
2014-09-15
Minimum magnitude displayed is 2.5.

Coastal Water Temperatures

Place Temperature
No Stations Reporting

Nearby Weather Stations